Terminal Aerodrome Forecast
Issued by NWS Wakefield, VA

Home | Current Version | Previous Version | Text Only | Print | Product List | Glossary On
Versions: 1 2 3 4 5 6 7 8 9 10 11 12 13 14 15 16 17
000
FTUS41 KAKQ 300626 AAA
TAFECG
TAF AMD
KECG 300626Z 3006/3106 VRB02KT 2SM BR BKN250
      TEMPO 3007/3011 1/2SM FG VV002
     FM301500 18009KT P6SM FEW040
     FM310000 19006KT P6SM SKC=

USA.gov is the U.S. government's official web portal to all federal, state and local government web resources and services.